Time;durP1;ratioP1;P1;durP2;ratioP2;P2;SDS_P1;SDS_P2;PMS_P1;PMS_P2;Temp;Humidity;BMP_temperature;BMP_pressure;BME280_temperature;BME280_humidity;BME280_pressure;Samples;Min_cycle;Max_cycle;Signal;HPM_P1;HPM_P2
2023/04/21 00:02:17;;;;;;;17.83;9.45;;;;;;;8.54;77.72;101673.75;4988531;28;20034;-51
2023/04/21 00:04:45;;;;;;;25.85;8.73;;;;;;;8.55;77.62;101670.22;4985895;28;20042;-51
2023/04/21 00:07:13;;;;;;;26.15;8.13;;;;;;;8.44;77.74;101666.94;4993741;28;20060;-51
2023/04/21 00:09:39;;;;;;;19.77;8.40;;;;;;;8.22;78.28;101662.13;4992875;28;20038;-51
2023/04/21 00:12:05;;;;;;;23.48;9.10;;;;;;;8.06;79.25;101655.44;4991356;28;20096;-52
2023/04/21 00:14:30;;;;;;;30.45;9.93;;;;;;;8.15;79.34;101660.50;4995108;28;20030;-52
2023/04/21 00:16:56;;;;;;;16.45;8.68;;;;;;;8.27;78.98;101660.25;4993672;28;20042;-51
2023/04/21 00:19:22;;;;;;;26.10;8.45;;;;;;;8.41;78.15;101657.31;4992732;28;20031;-52
2023/04/21 00:21:48;;;;;;;13.98;7.82;;;;;;;8.54;77.67;101647.38;4992370;28;20026;-51
2023/04/21 00:24:13;;;;;;;16.10;7.68;;;;;;;8.60;76.97;101655.16;4992221;28;20471;-52
2023/04/21 00:26:38;;;;;;;27.45;9.00;;;;;;;8.52;77.33;101653.59;4989891;28;20050;-52
2023/04/21 00:29:04;;;;;;;20.58;7.63;;;;;;;8.58;76.84;101659.59;4992623;28;20069;-52
2023/04/21 00:31:30;;;;;;;19.70;8.18;;;;;;;8.62;76.41;101660.41;4986083;28;20121;-52
2023/04/21 00:33:55;;;;;;;17.65;8.55;;;;;;;8.70;76.50;101653.19;4982005;28;20031;-51
2023/04/21 00:36:23;;;;;;;25.08;8.27;;;;;;;8.59;76.89;101649.91;4983428;28;20030;-51
2023/04/21 00:38:49;;;;;;;33.95;8.65;;;;;;;8.51;77.05;101655.34;4981457;28;20034;-52
2023/04/21 00:41:14;;;;;;;18.70;8.38;;;;;;;8.54;77.08;101657.06;4984468;28;20030;-52
2023/04/21 00:44:06;;;;;;;23.98;9.65;;;;;;;8.54;77.02;101657.94;4979079;28;20046;-52
2023/04/21 00:46:33;;;;;;;26.73;9.80;;;;;;;8.64;76.17;101656.81;5001898;28;20084;-52
2023/04/21 00:48:59;;;;;;;28.13;9.18;;;;;;;8.78;76.07;101656.50;4986276;28;20096;-52
2023/04/21 00:51:27;;;;;;;18.77;8.70;;;;;;;8.60;76.39;101657.78;4982412;28;20344;-51
2023/04/21 00:53:54;;;;;;;29.88;8.73;;;;;;;8.74;75.77;101653.97;4983330;28;20031;-52
2023/04/21 00:56:20;;;;;;;49.08;18.35;;;;;;;8.85;75.29;101654.56;4980249;28;20109;-51
2023/04/21 00:58:47;;;;;;;35.28;10.70;;;;;;;8.90;75.33;101654.47;4981840;28;20513;-51
2023/04/21 01:01:12;;;;;;;20.15;9.00;;;;;;;8.87;74.95;101649.28;4988141;28;20122;-51
2023/04/21 01:03:38;;;;;;;17.83;8.90;;;;;;;8.71;75.31;101649.63;4981406;28;20110;-52
2023/04/21 01:06:03;;;;;;;19.17;9.60;;;;;;;8.70;75.90;101654.97;4988105;28;20452;-52
2023/04/21 01:08:29;;;;;;;28.60;9.88;;;;;;;8.80;75.29;101644.13;4987495;28;20041;-52
2023/04/21 01:10:54;;;;;;;17.60;8.70;;;;;;;8.68;75.66;101646.19;4988776;28;20497;-52
2023/04/21 01:13:22;;;;;;;29.23;9.07;;;;;;;8.52;76.50;101651.84;4980367;28;20026;-52
2023/04/21 01:15:48;;;;;;;12.63;7.80;;;;;;;8.61;75.76;101643.72;4981090;28;20359;-52
2023/04/21 01:18:13;;;;;;;21.50;10.10;;;;;;;8.83;74.86;101648.50;4980985;28;20028;-52
2023/04/21 01:20:39;;;;;;;22.45;10.93;;;;;;;8.77;75.06;101648.63;4983062;28;20037;-52
2023/04/21 01:23:04;;;;;;;20.95;10.02;;;;;;;8.72;75.12;101639.97;4988595;28;20483;-51
2023/04/21 01:25:30;;;;;;;39.22;10.77;;;;;;;8.59;75.51;101640.25;4992659;28;20045;-51
2023/04/21 01:27:55;;;;;;;27.90;9.88;;;;;;;8.71;74.85;101639.06;4990053;28;20034;-52
2023/04/21 01:30:21;;;;;;;19.17;9.57;;;;;;;8.75;74.55;101640.75;4991220;28;20042;-52
2023/04/21 01:32:46;;;;;;;20.13;8.90;;;;;;;8.70;75.05;101639.13;4990102;28;20093;-52
2023/04/21 01:35:11;;;;;;;20.63;10.38;;;;;;;8.64;75.19;101634.88;4987528;28;20019;-52
2023/04/21 01:37:37;;;;;;;24.38;11.52;;;;;;;8.60;75.06;101631.44;4982238;28;20084;-53
2023/04/21 01:40:05;;;;;;;20.98;10.77;;;;;;;8.53;75.39;101635.09;4980914;28;20026;-51
2023/04/21 01:42:31;;;;;;;19.85;10.63;;;;;;;8.45;75.63;101626.50;4983493;28;20034;-53
2023/04/21 01:44:56;;;;;;;25.73;11.73;;;;;;;8.61;75.16;101627.91;4980054;28;20089;-51
2023/04/21 01:47:23;;;;;;;17.23;10.93;;;;;;;8.67;74.90;101629.53;4977300;28;20029;-51
2023/04/21 01:49:48;;;;;;;24.63;11.43;;;;;;;8.50;75.27;101635.19;4982595;28;20113;-51
2023/04/21 01:52:14;;;;;;;20.40;10.85;;;;;;;8.58;74.49;101627.97;4988420;28;20129;-51
2023/04/21 01:54:39;;;;;;;28.15;12.40;;;;;;;8.51;74.84;101626.38;4988405;28;20034;-51
2023/04/21 01:57:05;;;;;;;22.17;10.45;;;;;;;8.60;74.79;101633.22;4988638;28;20443;-51
2023/04/21 01:59:31;;;;;;;27.35;12.18;;;;;;;8.53;74.64;101624.56;4981341;28;20341;-51
2023/04/21 02:01:56;;;;;;;23.55;10.82;;;;;;;8.52;74.94;101627.25;4985769;28;20030;-51
2023/04/21 02:04:21;;;;;;;24.95;11.00;;;;;;;8.36;75.19;101627.56;4986364;28;20034;-51
2023/04/21 02:06:47;;;;;;;22.70;12.13;;;;;;;8.19;75.72;101622.69;4981814;28;20463;-52
2023/04/21 02:09:12;;;;;;;24.63;11.55;;;;;;;8.06;76.33;101623.84;4995571;28;20116;-51
2023/04/21 02:11:38;;;;;;;21.75;10.63;;;;;;;8.09;76.26;101618.47;4982117;28;20041;-52
2023/04/21 02:14:03;;;;;;;20.30;11.35;;;;;;;8.17;75.86;101621.81;4986346;28;20026;-51
2023/04/21 02:16:29;;;;;;;17.13;10.52;;;;;;;8.16;75.81;101620.09;4991893;28;20041;-51
2023/04/21 02:18:55;;;;;;;19.30;11.57;;;;;;;8.06;75.62;101618.59;4987244;28;20410;-51
2023/04/21 02:21:21;;;;;;;23.80;11.77;;;;;;;7.99;76.52;101622.22;4982679;28;20113;-51
2023/04/21 02:23:47;;;;;;;23.95;12.07;;;;;;;7.95;76.38;101620.56;4983708;28;20128;-53
2023/04/21 02:26:12;;;;;;;25.30;10.95;;;;;;;8.03;75.70;101611.59;4987220;28;20392;-50
2023/04/21 02:28:37;;;;;;;17.95;10.88;;;;;;;7.94;76.33;101616.19;4990200;28;20122;-51
2023/04/21 02:31:03;;;;;;;20.73;10.77;;;;;;;7.90;76.11;101608.34;4984629;28;20078;-50
2023/04/21 02:33:28;;;;;;;24.52;11.27;;;;;;;7.84;76.32;101608.47;4988794;28;20106;-51
2023/04/21 02:35:54;;;;;;;24.88;11.88;;;;;;;7.96;75.54;101610.00;4983456;28;20038;-50
2023/04/21 02:38:19;;;;;;;21.52;12.57;;;;;;;7.89;76.03;101606.63;4986571;28;20103;-51
2023/04/21 02:40:45;;;;;;;21.33;13.00;;;;;;;7.94;75.30;101609.16;4989491;28;20372;-52
2023/04/21 02:43:11;;;;;;;20.83;11.80;;;;;;;7.94;75.59;101614.41;4982447;28;20046;-52
2023/04/21 02:45:36;;;;;;;22.92;12.25;;;;;;;7.79;75.95;101612.09;4972755;28;20157;-52
2023/04/21 02:48:02;;;;;;;18.35;11.82;;;;;;;7.83;75.72;101606.75;4985996;28;20026;-52
2023/04/21 02:50:27;;;;;;;19.42;12.80;;;;;;;7.85;75.17;101610.22;4984676;28;20106;-52
2023/04/21 02:52:53;;;;;;;26.30;13.43;;;;;;;7.66;76.25;101622.00;4988200;28;20039;-51
2023/04/21 02:55:18;;;;;;;27.15;12.50;;;;;;;7.59;76.33;101623.03;4984642;28;20033;-51
2023/04/21 02:57:43;;;;;;;25.70;13.43;;;;;;;7.56;76.05;101618.69;4986517;28;20499;-51
2023/04/21 03:00:11;;;;;;;24.40;12.38;;;;;;;7.50;76.47;101619.69;4986493;28;20034;-52
2023/04/21 03:02:36;;;;;;;28.92;12.95;;;;;;;7.38;76.35;101619.03;4982878;28;20045;-52
2023/04/21 03:05:03;;;;;;;22.65;12.77;;;;;;;7.34;76.92;101618.25;4984106;28;20439;-52
2023/04/21 03:07:28;;;;;;;23.80;13.20;;;;;;;7.27;76.65;101616.59;4982290;28;20041;-52
2023/04/21 03:09:53;;;;;;;26.13;13.18;;;;;;;7.13;77.83;101620.34;4988770;28;20042;-52
2023/04/21 03:12:19;;;;;;;19.48;13.05;;;;;;;7.22;77.36;101618.44;4983357;28;20136;-52
2023/04/21 03:14:45;;;;;;;32.00;14.77;;;;;;;7.32;76.73;101610.38;4988192;28;20034;-51
2023/04/21 03:17:10;;;;;;;19.42;11.77;;;;;;;7.47;75.61;101609.22;4989306;28;20130;-51
2023/04/21 03:19:35;;;;;;;32.00;14.68;;;;;;;7.41;76.07;101614.59;4986309;28;20030;-53
2023/04/21 03:22:01;;;;;;;25.73;13.82;;;;;;;7.37;76.13;101618.16;4988355;28;20030;-51
2023/04/21 03:24:26;;;;;;;19.50;13.50;;;;;;;7.42;75.48;101615.44;4989409;28;20039;-52
2023/04/21 03:26:52;;;;;;;22.33;12.57;;;;;;;7.25;76.03;101613.13;4984691;28;20125;-51
2023/04/21 03:29:17;;;;;;;26.67;12.35;;;;;;;7.09;76.93;101618.66;4976689;28;20031;-52
2023/04/21 03:31:43;;;;;;;20.30;14.02;;;;;;;7.08;77.01;101621.34;4983887;28;20457;-52
2023/04/21 03:34:08;;;;;;;22.77;14.32;;;;;;;6.96;77.13;101612.75;4988893;28;20021;-51
2023/04/21 03:36:33;;;;;;;23.10;14.18;;;;;;;7.05;76.43;101621.38;4990456;28;20034;-50
2023/04/21 03:38:59;;;;;;;19.98;12.77;;;;;;;6.95;77.32;101621.53;4984964;28;20070;-50
2023/04/21 03:41:24;;;;;;;27.13;14.15;;;;;;;6.77;77.58;101622.69;4980326;28;20107;-51
2023/04/21 03:43:51;;;;;;;19.73;13.45;;;;;;;6.61;78.17;101626.47;4986372;28;20026;-51
2023/04/21 03:46:18;;;;;;;27.75;13.82;;;;;;;6.63;78.25;101627.28;4983912;28;20033;-53
2023/04/21 03:48:44;;;;;;;27.63;13.45;;;;;;;6.65;78.32;101628.13;4983428;28;20030;-51
2023/04/21 03:51:09;;;;;;;27.52;14.32;;;;;;;6.65;77.82;101617.63;4984001;28;20034;-50
2023/04/21 03:53:35;;;;;;;24.92;14.48;;;;;;;6.75;78.04;101624.50;4981825;28;20026;-50
2023/04/21 03:56:00;;;;;;;27.67;14.82;;;;;;;6.55;78.37;101618.66;4988759;28;20030;-50
2023/04/21 03:58:25;;;;;;;22.45;13.45;;;;;;;6.42;78.67;101624.13;4983764;28;20057;-52
2023/04/21 04:00:51;;;;;;;26.88;14.20;;;;;;;6.32;79.04;101625.13;4982994;28;20043;-52
2023/04/21 04:03:16;;;;;;;19.20;13.02;;;;;;;6.15;79.10;101621.88;4987009;28;20037;-52
2023/04/21 04:05:41;;;;;;;22.45;15.13;;;;;;;6.16;80.35;101623.59;4985090;28;20739;-50
2023/04/21 04:08:07;;;;;;;22.42;13.02;;;;;;;6.02;79.35;101622.00;4981377;28;20019;-52
2023/04/21 04:10:32;;;;;;;22.90;13.05;;;;;;;6.00;79.87;101629.06;4983983;28;20448;-52
2023/04/21 04:12:57;;;;;;;25.17;14.23;;;;;;;5.95;80.68;101633.47;4982533;28;20045;-52
2023/04/21 04:15:23;;;;;;;27.60;15.90;;;;;;;6.04;80.30;101627.25;4982949;28;20108;-52
2023/04/21 04:17:48;;;;;;;22.45;14.50;;;;;;;6.07;80.32;101630.69;4986852;28;20566;-52
2023/04/21 04:20:14;;;;;;;27.45;15.25;;;;;;;6.15;80.41;101627.13;4998004;28;20172;-51
2023/04/21 04:22:39;;;;;;;21.48;13.75;;;;;;;6.35;79.18;101635.56;4978999;28;20041;-51
2023/04/21 04:25:05;;;;;;;27.63;13.75;;;;;;;6.31;79.31;101633.91;4985087;28;20117;-52
2023/04/21 04:27:31;;;;;;;27.38;14.32;;;;;;;6.39;78.59;101634.66;4981813;28;20451;-50
2023/04/21 04:29:56;;;;;;;28.30;15.80;;;;;;;6.33;79.50;101634.75;4980282;28;20046;-51
2023/04/21 04:32:22;;;;;;;24.83;15.70;;;;;;;6.24;79.37;101643.63;4998568;28;20027;-52
2023/04/21 04:34:47;;;;;;;29.30;16.00;;;;;;;6.33;79.04;101632.09;4980574;28;20567;-52
2023/04/21 04:37:12;;;;;;;27.00;14.55;;;;;;;6.29;78.95;101629.53;4988709;28;20034;-50
2023/04/21 04:39:38;;;;;;;23.17;14.55;;;;;;;6.36;78.92;101637.31;4984042;28;20031;-53
2023/04/21 04:42:08;;;;;;;25.20;14.48;;;;;;;6.50;78.49;101631.00;4987518;28;20165;-52
2023/04/21 04:44:34;;;;;;;28.85;15.48;;;;;;;6.57;78.23;101632.63;4984016;28;20045;-52
2023/04/21 04:46:59;;;;;;;23.80;14.93;;;;;;;6.47;78.33;101633.66;4984729;28;20018;-52
2023/04/21 04:49:25;;;;;;;25.27;14.07;;;;;;;6.40;79.14;101623.25;4981617;28;20089;-52
2023/04/21 04:51:50;;;;;;;28.17;15.48;;;;;;;6.41;78.83;101629.38;4981502;28;20122;-52
2023/04/21 04:54:16;;;;;;;39.72;17.25;;;;;;;6.40;78.69;101633.75;4988835;28;20061;-51
2023/04/21 04:56:41;;;;;;;30.13;14.20;;;;;;;6.49;78.31;101632.78;4984489;28;20018;-51
2023/04/21 04:59:07;;;;;;;30.23;15.23;;;;;;;6.55;77.90;101629.16;4985384;28;20076;-51
2023/04/21 05:01:32;;;;;;;21.58;13.80;;;;;;;6.62;77.80;101633.47;4977957;28;20035;-50
2023/04/21 05:03:58;;;;;;;25.45;14.98;;;;;;;6.72;77.55;101640.31;4985870;28;20105;-51
2023/04/21 05:06:23;;;;;;;25.98;13.80;;;;;;;6.85;76.67;101632.22;4984491;28;20026;-50
2023/04/21 05:08:49;;;;;;;21.30;14.30;;;;;;;6.85;76.81;101635.72;4983801;28;20027;-50
2023/04/21 05:11:14;;;;;;;28.02;15.30;;;;;;;6.84;76.76;101643.63;4999311;28;20034;-50
2023/04/21 05:13:39;;;;;;;26.80;14.55;;;;;;;6.83;76.84;101632.22;4982382;28;20117;-51
2023/04/21 05:16:06;;;;;;;24.15;14.57;;;;;;;6.99;76.47;101640.75;4979845;28;20035;-52
2023/04/21 05:18:31;;;;;;;27.13;13.88;;;;;;;7.21;74.67;101643.00;4989067;28;20125;-53
2023/04/21 05:20:56;;;;;;;25.55;13.93;;;;;;;7.20;75.08;101641.28;4983964;28;20181;-52
2023/04/21 05:23:22;;;;;;;25.33;14.10;;;;;;;7.26;75.00;101642.03;4985666;28;20038;-52
2023/04/21 05:25:48;;;;;;;23.52;13.93;;;;;;;7.31;74.42;101639.34;4979719;28;20384;-51
2023/04/21 05:28:14;;;;;;;27.73;15.95;;;;;;;7.58;73.21;101644.97;4992499;28;20092;-51
2023/04/21 05:30:40;;;;;;;24.20;14.55;;;;;;;7.44;73.82;101637.34;4985076;28;20455;-51
2023/04/21 05:33:05;;;;;;;22.80;15.35;;;;;;;7.62;73.27;101630.88;4984164;28;20042;-51
2023/04/21 05:35:31;;;;;;;29.02;16.17;;;;;;;7.69;72.79;101635.13;4983275;28;20030;-51
2023/04/21 05:37:56;;;;;;;21.67;15.40;;;;;;;7.83;71.84;101627.81;4984870;28;20035;-52
2023/04/21 05:40:21;;;;;;;26.65;14.98;;;;;;;7.77;72.73;101633.19;4993572;28;20026;-52
2023/04/21 05:42:47;;;;;;;23.67;14.57;;;;;;;8.08;70.68;101636.06;4990690;28;20030;-51
2023/04/21 05:45:12;;;;;;;25.88;15.88;;;;;;;8.19;70.25;101638.47;4989566;28;20113;-51
2023/04/21 05:47:38;;;;;;;26.38;13.68;;;;;;;8.32;69.75;101640.81;4987506;28;20030;-53
2023/04/21 05:50:05;;;;;;;30.75;15.35;;;;;;;8.59;67.97;101639.38;4989792;28;20033;-53
2023/04/21 05:52:30;;;;;;;27.20;13.55;;;;;;;8.56;68.56;101635.03;4988999;28;20042;-53
2023/04/21 05:54:58;;;;;;;24.33;13.88;;;;;;;8.76;67.24;101634.59;4987711;28;20034;-52
2023/04/21 05:57:23;;;;;;;22.65;14.18;;;;;;;9.07;65.98;101646.13;4983887;28;20440;-52
2023/04/21 05:59:48;;;;;;;23.25;14.00;;;;;;;9.10;65.86;101646.06;4994460;28;20034;-52
2023/04/21 06:02:14;;;;;;;21.38;14.40;;;;;;;9.12;65.84;101650.41;4994155;28;20378;-52
2023/04/21 06:04:39;;;;;;;25.08;14.50;;;;;;;9.26;65.29;101636.84;4985691;28;20019;-53
2023/04/21 06:07:06;;;;;;;21.98;14.07;;;;;;;9.23;65.86;101646.63;4988505;28;20030;-52
2023/04/21 06:09:32;;;;;;;21.00;13.52;;;;;;;9.30;65.10;101633.25;5000034;28;20104;-53
2023/04/21 06:11:57;;;;;;;22.20;14.32;;;;;;;9.46;64.68;101633.66;4992141;28;20408;-52
2023/04/21 06:14:23;;;;;;;18.42;13.32;;;;;;;9.50;64.70;101634.47;4981380;28;20344;-52
2023/04/21 06:16:48;;;;;;;21.65;13.40;;;;;;;9.61;64.05;101640.34;4991030;28;20125;-52
2023/04/21 06:19:14;;;;;;;19.80;13.55;;;;;;;9.68;63.25;101633.97;4986621;28;20082;-53
2023/04/21 06:21:39;;;;;;;23.42;14.48;;;;;;;9.86;62.94;101622.03;4986263;28;20023;-52
2023/04/21 06:24:05;;;;;;;23.60;12.95;;;;;;;10.06;61.47;101634.63;4991455;28;20039;-52
2023/04/21 06:26:30;;;;;;;24.23;14.88;;;;;;;10.17;60.90;101626.41;4989707;28;20458;-52
2023/04/21 06:28:56;;;;;;;32.22;14.65;;;;;;;10.19;60.88;101629.00;4985087;28;20043;-52
2023/04/21 06:31:21;;;;;;;21.65;13.68;;;;;;;10.17;61.81;101620.22;4989914;28;20113;-52
2023/04/21 06:33:46;;;;;;;28.10;14.70;;;;;;;10.41;60.34;101624.81;4986254;28;20391;-51
2023/04/21 06:36:12;;;;;;;27.38;14.35;;;;;;;10.49;60.54;101613.13;4991666;28;20029;-52
2023/04/21 06:38:40;;;;;;;24.02;13.27;;;;;;;10.55;59.88;101615.59;4992970;28;20018;-52
2023/04/21 06:41:06;;;;;;;24.40;14.27;;;;;;;10.73;58.98;101615.00;4981418;28;20382;-51
2023/04/21 06:43:31;;;;;;;25.10;12.45;;;;;;;10.79;58.43;101614.81;4991877;28;20026;-52
2023/04/21 06:45:57;;;;;;;21.42;13.02;;;;;;;10.81;58.46;101612.97;4983790;28;20031;-52
2023/04/21 06:48:23;;;;;;;22.05;14.38;;;;;;;10.95;58.74;101614.28;4996813;28;20099;-51
2023/04/21 06:50:48;;;;;;;24.65;13.93;;;;;;;11.04;58.04;101613.97;4996829;28;20026;-51
2023/04/21 06:53:14;;;;;;;20.40;12.38;;;;;;;11.04;58.44;101608.69;4992594;28;20034;-52
2023/04/21 06:55:41;;;;;;;25.55;13.43;;;;;;;11.09;58.95;101621.78;4983539;28;20031;-52
2023/04/21 06:58:06;;;;;;;27.50;14.02;;;;;;;11.22;57.36;101612.50;4989815;28;20068;-52
2023/04/21 07:00:32;;;;;;;26.02;12.25;;;;;;;11.24;57.17;101609.78;4982231;28;20130;-52
2023/04/21 07:02:57;;;;;;;18.77;12.35;;;;;;;11.34;56.56;101596.16;4987026;28;20419;-52
2023/04/21 07:05:23;;;;;;;22.02;12.85;;;;;;;11.37;56.70;101608.44;4989268;28;20034;-52
2023/04/21 07:07:48;;;;;;;21.33;13.82;;;;;;;11.45;57.37;101603.72;4985204;28;20061;-50
2023/04/21 07:10:18;;;;;;;28.67;13.45;;;;;;;11.53;56.57;101606.97;4977236;28;20514;-51
2023/04/21 07:12:44;;;;;;;22.73;12.93;;;;;;;11.61;56.58;101613.78;4984648;28;20022;-51
2023/04/21 07:15:10;;;;;;;19.33;11.27;;;;;;;11.67;55.15;101613.53;4996205;28;20034;-51
2023/04/21 07:17:35;;;;;;;20.95;12.60;;;;;;;11.75;55.54;101611.47;4989982;28;20058;-50
2023/04/21 07:20:01;;;;;;;18.90;12.65;;;;;;;11.84;55.16;101611.16;4982266;28;20058;-52
2023/04/21 07:22:26;;;;;;;22.13;13.73;;;;;;;11.95;55.14;101608.13;4983011;28;20042;-50
2023/04/21 07:24:52;;;;;;;29.67;11.85;;;;;;;12.06;54.31;101605.06;4987277;28;20031;-50
2023/04/21 07:27:18;;;;;;;18.02;12.35;;;;;;;12.10;53.96;101601.38;4981339;28;20041;-52
2023/04/21 07:29:43;;;;;;;17.15;12.35;;;;;;;12.17;54.22;101608.16;4987170;28;20039;-50
2023/04/21 07:32:09;;;;;;;20.77;13.45;;;;;;;12.23;54.01;101615.88;4983109;28;20042;-51
2023/04/21 07:34:34;;;;;;;23.75;12.02;;;;;;;12.29;54.00;101605.06;4982716;28;20038;-50
2023/04/21 07:37:00;;;;;;;26.63;13.25;;;;;;;12.41;54.11;101608.16;4991145;28;20027;-50
2023/04/21 07:39:25;;;;;;;34.28;12.07;;;;;;;12.56;53.04;101610.16;4984932;28;20027;-50
2023/04/21 07:41:51;;;;;;;18.20;11.95;;;;;;;12.72;52.88;101609.53;4985986;28;20031;-50
2023/04/21 07:44:16;;;;;;;30.20;12.80;;;;;;;12.81;51.80;101610.03;4982541;28;20038;-50
2023/04/21 07:46:42;;;;;;;23.63;12.70;;;;;;;12.88;52.38;101599.16;4986950;28;20501;-50
2023/04/21 07:49:07;;;;;;;15.88;11.55;;;;;;;13.04;51.72;101601.13;4985276;28;20034;-51
2023/04/21 07:51:33;;;;;;;23.95;12.80;;;;;;;13.19;51.42;101598.72;4983250;28;20027;-51
2023/04/21 07:53:58;;;;;;;18.65;10.90;;;;;;;13.27;50.73;101591.28;4981365;28;20503;-51
2023/04/21 07:56:24;;;;;;;18.33;11.70;;;;;;;13.37;49.67;101594.44;4986187;28;20072;-52
2023/04/21 07:58:49;;;;;;;19.45;11.30;;;;;;;13.51;50.05;101593.84;4984424;28;20097;-53
2023/04/21 08:01:15;;;;;;;17.40;11.40;;;;;;;13.59;49.33;101591.69;4978968;28;20027;-52
2023/04/21 08:03:40;;;;;;;17.77;11.23;;;;;;;13.75;49.03;101592.72;4992995;28;20057;-52
2023/04/21 08:06:06;;;;;;;20.45;11.60;;;;;;;13.90;48.42;101587.66;4988126;28;20030;-52
2023/04/21 08:08:31;;;;;;;17.02;11.25;;;;;;;13.99;48.39;101589.84;4977735;28;20113;-50
2023/04/21 08:10:56;;;;;;;16.02;10.95;;;;;;;14.01;48.92;101588.00;4988124;28;20042;-50
2023/04/21 08:13:24;;;;;;;20.92;10.57;;;;;;;14.16;49.31;101596.19;4979288;28;20094;-51
2023/04/21 08:15:52;;;;;;;15.60;10.52;;;;;;;14.24;48.91;101583.41;4982522;28;20108;-51
2023/04/21 08:18:17;;;;;;;24.90;11.52;;;;;;;14.40;48.76;101586.16;4981107;28;20113;-50
2023/04/21 08:20:44;;;;;;;19.27;10.75;;;;;;;14.59;47.47;101589.69;4981837;28;20113;-50
2023/04/21 08:23:09;;;;;;;18.88;10.75;;;;;;;14.56;46.46;101581.81;4985511;28;20041;-51
2023/04/21 08:25:35;;;;;;;17.80;10.38;;;;;;;14.68;46.55;101588.38;4981588;28;20042;-51
2023/04/21 08:28:00;;;;;;;16.90;10.88;;;;;;;14.63;46.15;101575.31;4980171;28;20747;-51
2023/04/21 08:30:27;;;;;;;16.50;9.93;;;;;;;14.79;46.27;101578.03;4984379;28;20039;-51
2023/04/21 08:32:52;;;;;;;19.20;10.75;;;;;;;14.86;46.68;101575.97;4985404;28;20037;-51
2023/04/21 08:35:17;;;;;;;16.30;10.95;;;;;;;14.92;45.09;101585.41;4985015;28;20034;-52
2023/04/21 08:37:44;;;;;;;16.23;9.40;;;;;;;15.08;45.06;101569.53;4985625;28;20027;-52
2023/04/21 08:40:10;;;;;;;15.57;10.48;;;;;;;15.15;45.63;101570.94;4983519;28;20061;-51
2023/04/21 08:42:37;;;;;;;15.00;10.07;;;;;;;15.34;44.96;101570.84;4988535;28;20100;-51
2023/04/21 08:45:03;;;;;;;16.98;10.30;;;;;;;15.45;43.06;101573.78;4977957;28;20045;-50
2023/04/21 08:47:28;;;;;;;14.30;9.00;;;;;;;15.55;43.51;101567.03;4982303;28;20045;-51
2023/04/21 08:49:55;;;;;;;15.80;9.52;;;;;;;15.57;43.57;101562.47;4982871;28;20037;-51
2023/04/21 08:52:21;;;;;;;15.68;9.98;;;;;;;15.64;43.39;101562.16;4979907;28;20038;-51
2023/04/21 08:54:50;;;;;;;15.18;10.10;;;;;;;15.72;43.52;101559.91;4978784;28;20524;-51
2023/04/21 08:57:16;;;;;;;18.58;9.60;;;;;;;15.73;43.08;101566.97;4985842;28;20050;-51
2023/04/21 08:59:42;;;;;;;25.13;10.65;;;;;;;15.77;42.27;101564.09;4988445;28;20085;-51
2023/04/21 09:02:09;;;;;;;15.35;9.15;;;;;;;15.83;41.56;101560.22;4983413;28;20514;-53
2023/04/21 09:04:37;;;;;;;17.75;9.50;;;;;;;16.03;41.54;101552.94;4990709;28;20023;-51
2023/04/21 09:07:02;;;;;;;16.75;9.05;;;;;;;16.11;41.65;101562.22;4986003;28;20111;-51
2023/04/21 09:09:28;;;;;;;13.32;9.10;;;;;;;16.33;42.44;101564.53;4983126;28;20046;-51
2023/04/21 09:11:56;;;;;;;12.63;8.13;;;;;;;16.42;40.77;101568.47;4985139;28;20034;-50
2023/04/21 09:14:21;;;;;;;17.98;8.95;;;;;;;16.57;41.13;101564.06;4978982;28;20034;-51
2023/04/21 09:16:58;;;;;;;13.60;8.43;;;;;;;16.53;40.13;101567.88;4988173;28;20049;-51
2023/04/21 09:19:29;;;;;;;15.80;8.43;;;;;;;16.54;39.69;101568.72;4983718;28;20433;-51
2023/04/21 09:21:55;;;;;;;13.85;7.72;;;;;;;16.69;39.97;101563.38;4985404;28;20034;-51
2023/04/21 09:24:20;;;;;;;13.90;9.57;;;;;;;16.75;39.38;101558.59;4972615;28;20033;-51
2023/04/21 09:26:50;;;;;;;14.15;9.20;;;;;;;16.83;40.12;101554.53;4977199;28;20524;-51
2023/04/21 09:29:16;;;;;;;11.63;7.55;;;;;;;16.82;39.85;101562.63;4976469;28;20491;-51
2023/04/21 09:31:43;;;;;;;12.57;8.45;;;;;;;17.02;39.02;101553.47;4982863;28;20042;-51
2023/04/21 09:34:26;;;;;;;15.25;6.95;;;;;;;17.10;38.63;101550.31;4984445;28;20034;-52
2023/04/21 09:37:02;;;;;;;15.25;8.00;;;;;;;17.15;37.12;101559.78;4990116;28;20058;-52
2023/04/21 09:39:29;;;;;;;12.13;8.35;;;;;;;17.24;36.83;101547.69;4997433;28;20030;-50
2023/04/21 09:41:56;;;;;;;12.80;7.50;;;;;;;17.35;37.44;101545.22;4997465;28;20034;-57
2023/04/21 09:44:21;;;;;;;11.52;7.22;;;;;;;17.45;36.84;101539.31;4994040;28;20052;-51
2023/04/21 09:46:49;;;;;;;11.43;7.95;;;;;;;17.47;37.45;101553.44;4988507;28;20026;-51
2023/04/21 09:49:17;;;;;;;17.23;7.53;;;;;;;17.63;36.94;101548.84;4995600;28;20181;-51
2023/04/21 09:51:44;;;;;;;12.48;8.38;;;;;;;17.67;36.19;101542.34;4988280;28;20475;-51
2023/04/21 09:54:17;;;;;;;13.18;7.25;;;;;;;17.73;36.71;101544.63;4985154;28;20031;-51
2023/04/21 09:56:43;;;;;;;11.32;6.57;;;;;;;17.81;36.63;101536.13;4985382;28;20026;-51
2023/04/21 09:59:27;;;;;;;12.18;6.82;;;;;;;17.90;36.87;101540.03;4987438;28;20628;-51
2023/04/21 10:01:55;;;;;;;14.38;7.32;;;;;;;18.01;35.39;101537.53;4984857;28;20038;-52
2023/04/21 10:04:22;;;;;;;12.50;8.10;;;;;;;18.12;35.19;101529.69;4995745;28;20026;-52
2023/04/21 10:06:47;;;;;;;12.02;7.97;;;;;;;17.99;35.53;101531.44;4996102;28;20026;-50
2023/04/21 10:09:18;;;;;;;12.20;8.10;;;;;;;18.09;36.04;101524.53;4995140;28;20036;-52
2023/04/21 10:11:43;;;;;;;15.93;6.93;;;;;;;18.16;36.96;101535.69;4994268;28;20327;-52
2023/04/21 10:14:09;;;;;;;11.23;7.47;;;;;;;18.26;35.38;101525.22;4995658;28;20474;-52
2023/04/21 10:16:38;;;;;;;13.85;6.60;;;;;;;18.45;36.04;101522.22;4995038;28;20049;-50
2023/04/21 10:19:27;;;;;;;15.30;7.53;;;;;;;18.53;35.69;101523.41;4993592;28;20046;-52
2023/04/21 10:21:56;;;;;;;10.20;8.48;;;;;;;18.75;35.68;101521.97;4994605;28;20387;-52
2023/04/21 10:24:22;;;;;;;12.75;8.05;;;;;;;18.94;35.34;101515.38;4994568;28;20045;-51
2023/04/21 10:26:49;;;;;;;11.73;7.10;;;;;;;18.80;34.60;101508.25;4995516;28;20033;-50
2023/04/21 10:29:15;;;;;;;11.43;6.80;;;;;;;18.74;33.50;101512.22;4979673;28;20173;-51
2023/04/21 10:31:53;;;;;;;11.15;7.05;;;;;;;18.92;33.08;101509.28;4987352;28;20101;-51
2023/04/21 10:34:37;;;;;;;14.48;7.07;;;;;;;18.94;32.97;101510.03;4994266;28;20113;-53
2023/04/21 10:37:05;;;;;;;10.27;7.03;;;;;;;19.11;33.37;101509.72;4989617;28;20031;-51
2023/04/21 10:39:46;;;;;;;13.38;7.53;;;;;;;19.12;33.95;101503.38;4977640;28;20099;-52
2023/04/21 10:42:11;;;;;;;15.23;6.45;;;;;;;19.33;34.01;101501.00;4995088;28;20466;-51
2023/04/21 10:44:41;;;;;;;14.98;6.90;;;;;;;19.44;32.95;101485.03;4994662;28;20065;-52
2023/04/21 10:47:06;;;;;;;9.77;6.43;;;;;;;19.72;33.97;101490.22;4989035;28;20085;-51
2023/04/21 10:49:37;;;;;;;8.77;6.60;;;;;;;19.87;32.04;101488.28;4994880;28;20067;-51
2023/04/21 10:52:04;;;;;;;11.55;7.75;;;;;;;20.20;31.16;101482.22;4995083;28;20038;-51
2023/04/21 10:54:40;;;;;;;24.83;7.00;;;;;;;20.78;30.40;101489.56;4993599;28;20594;-52
2023/04/21 10:57:08;;;;;;;15.07;8.15;;;;;;;20.68;29.98;101476.84;4991804;28;20066;-51
2023/04/21 10:59:34;;;;;;;13.38;6.43;;;;;;;21.69;28.91;101479.72;4992415;28;20030;-51
2023/04/21 11:02:01;;;;;;;12.05;7.20;;;;;;;21.75;27.52;101480.06;4992625;28;20030;-51
2023/04/21 11:04:27;;;;;;;82.45;47.83;;;;;;;22.61;28.13;101471.19;4974704;28;20035;-51
2023/04/21 11:07:13;;;;;;;15.57;8.82;;;;;;;20.84;29.13;101473.81;4984721;28;20037;-51
2023/04/21 11:09:39;;;;;;;11.05;7.35;;;;;;;21.86;28.62;101465.75;4987321;28;20043;-52
2023/04/21 11:12:07;;;;;;;10.55;7.28;;;;;;;22.65;27.03;101451.13;4981605;28;20443;-52
2023/04/21 11:14:36;;;;;;;16.27;8.73;;;;;;;21.70;28.64;101450.00;4973539;28;20059;-52